Time;durP1;ratioP1;P1;durP2;ratioP2;P2;SDS_P1;SDS_P2;PMS_P1;PMS_P2;Temp;Humidity;BMP_temperature;BMP_pressure;BME280_temperature;BME280_humidity;BME280_pressure;Samples;Min_cycle;Max_cycle;Signal;HPM_P1;HPM_P2
2023/07/01 00:01:41;;;;;;;8.85;4.60;;;;;;;17.21;68.22;93635.09;5025463;28;20024;-86
2023/07/01 00:04:07;;;;;;;7.85;4.13;;;;;;;17.18;68.69;93630.44;5025304;28;20018;-85
2023/07/01 00:06:32;;;;;;;8.73;4.13;;;;;;;17.17;69.23;93632.34;5025609;28;20014;-86
2023/07/01 00:08:58;;;;;;;10.48;4.10;;;;;;;17.13;69.02;93628.81;5025170;28;20092;-85
2023/07/01 00:11:24;;;;;;;5.22;3.80;;;;;;;17.06;68.32;93626.00;5024465;28;20025;-85
2023/07/01 00:13:49;;;;;;;7.97;4.10;;;;;;;17.12;68.73;93623.81;5025208;28;20037;-85
2023/07/01 00:16:14;;;;;;;6.68;4.65;;;;;;;16.98;68.72;93618.94;5025466;28;20053;-85
2023/07/01 00:18:41;;;;;;;8.80;4.53;;;;;;;17.00;68.36;93622.84;5025224;28;20024;-85
2023/07/01 00:21:07;;;;;;;8.55;4.78;;;;;;;17.02;69.10;93625.19;5025157;28;20076;-85
2023/07/01 00:23:33;;;;;;;6.22;4.07;;;;;;;16.96;68.83;93616.63;5023852;28;20038;-85
2023/07/01 00:25:59;;;;;;;10.05;4.70;;;;;;;16.95;69.04;93609.66;5024872;28;20029;-85
2023/07/01 00:28:24;;;;;;;10.43;4.90;;;;;;;16.94;69.07;93605.41;5040451;28;20064;-85
2023/07/01 00:30:50;;;;;;;9.45;4.25;;;;;;;16.98;69.44;93608.19;5040365;28;20036;-85
2023/07/01 00:33:15;;;;;;;11.65;6.72;;;;;;;16.84;69.18;93622.16;5023714;28;20029;-85
2023/07/01 00:35:41;;;;;;;9.93;4.93;;;;;;;16.80;69.77;93614.00;5024959;28;20097;-85
2023/07/01 00:38:06;;;;;;;12.07;4.95;;;;;;;16.81;69.97;93612.09;5039993;28;20049;-85
2023/07/01 00:40:32;;;;;;;10.55;4.93;;;;;;;16.82;70.66;93610.97;5024604;28;20100;-85
2023/07/01 00:42:57;;;;;;;11.05;4.95;;;;;;;16.77;69.93;93600.47;5024710;28;20032;-85
2023/07/01 00:45:23;;;;;;;11.95;6.28;;;;;;;16.74;69.94;93609.28;5024888;28;20116;-85
2023/07/01 00:47:48;;;;;;;7.68;4.90;;;;;;;16.74;69.92;93599.28;5024468;28;20024;-84
2023/07/01 00:50:14;;;;;;;10.52;5.70;;;;;;;16.77;70.19;93603.16;5024563;28;20031;-85
2023/07/01 00:52:41;;;;;;;9.98;5.90;;;;;;;16.77;69.67;93605.84;5024281;28;20223;-85
2023/07/01 00:55:08;;;;;;;17.92;5.35;;;;;;;16.75;69.45;93597.34;5023951;28;20042;-85
2023/07/01 00:57:34;;;;;;;6.97;4.88;;;;;;;16.75;69.86;93603.53;5024316;28;20029;-85
2023/07/01 01:00:04;;;;;;;8.85;4.95;;;;;;;16.75;69.33;93611.63;5039635;28;20022;-85
2023/07/01 01:02:33;;;;;;;10.80;4.95;;;;;;;16.64;70.02;93600.63;5024232;28;20022;-84
2023/07/01 01:05:10;;;;;;;10.48;5.20;;;;;;;16.71;69.47;93609.97;5024356;28;20014;-85
2023/07/01 01:08:08;;;;;;;13.27;5.28;;;;;;;16.73;69.81;93615.78;5024148;28;20049;-85
2023/07/01 01:10:35;;;;;;;11.55;5.80;;;;;;;16.71;69.95;93609.97;5023843;28;20042;-85
2023/07/01 01:13:04;;;;;;;10.63;5.32;;;;;;;16.73;69.78;93607.72;5022886;28;20033;-83
2023/07/01 01:15:31;;;;;;;11.15;6.00;;;;;;;16.72;70.00;93611.53;5024017;28;20307;-84
2023/07/01 01:18:04;;;;;;;10.88;5.63;;;;;;;16.72;70.29;93606.16;5023999;28;20325;-84
2023/07/01 01:20:31;;;;;;;8.60;5.00;;;;;;;16.74;70.05;93601.97;5024057;28;20101;-84
2023/07/01 01:23:13;;;;;;;12.77;5.85;;;;;;;16.69;70.97;93601.47;5024034;28;20213;-84
2023/07/01 01:26:07;;;;;;;8.90;5.38;;;;;;;16.69;71.27;93606.88;5024007;28;20030;-84
2023/07/01 01:28:34;;;;;;;11.57;6.05;;;;;;;16.61;72.02;93590.59;5023293;28;20101;-84
2023/07/01 01:31:00;;;;;;;9.75;5.22;;;;;;;16.68;71.62;93597.25;5039217;28;20087;-84
2023/07/01 01:33:25;;;;;;;10.25;6.00;;;;;;;16.66;71.57;93597.59;5038754;28;20053;-85
2023/07/01 01:35:51;;;;;;;9.25;5.85;;;;;;;16.67;71.55;93596.47;5023787;28;20097;-84
2023/07/01 01:38:25;;;;;;;15.15;5.72;;;;;;;16.63;72.01;93596.41;5022726;28;20055;-84
2023/07/01 01:41:00;;;;;;;10.50;5.30;;;;;;;16.60;71.93;93594.41;5023890;28;20032;-85
2023/07/01 01:43:51;;;;;;;9.15;5.53;;;;;;;16.58;71.35;93594.00;5023807;28;20096;-84
2023/07/01 01:46:19;;;;;;;10.30;5.63;;;;;;;16.53;71.69;93590.84;5023837;28;20069;-85
2023/07/01 01:48:45;;;;;;;9.38;5.45;;;;;;;16.50;71.55;93581.56;5023841;28;20041;-85
2023/07/01 01:51:13;;;;;;;12.40;6.22;;;;;;;16.48;72.17;93591.91;5023711;28;20029;-85
2023/07/01 01:53:41;;;;;;;12.65;5.78;;;;;;;16.45;72.74;93588.00;5023659;28;20252;-85
2023/07/01 01:56:07;;;;;;;9.77;5.70;;;;;;;16.44;72.98;93596.44;5023577;28;20105;-85
2023/07/01 01:58:33;;;;;;;10.02;5.95;;;;;;;16.41;72.88;93591.78;5023727;28;20093;-84
2023/07/01 02:00:59;;;;;;;11.10;6.28;;;;;;;16.36;73.43;93592.06;5023690;28;20017;-84
2023/07/01 02:03:25;;;;;;;12.13;6.50;;;;;;;16.37;73.34;93589.00;5022286;28;20029;-85
2023/07/01 02:05:50;;;;;;;10.70;6.07;;;;;;;16.39;73.74;93581.38;5023526;28;20013;-84
2023/07/01 02:08:16;;;;;;;8.90;5.63;;;;;;;16.45;73.57;93588.00;5023891;28;20385;-85
2023/07/01 02:10:41;;;;;;;16.67;5.50;;;;;;;16.48;73.37;93591.91;5023721;28;20022;-85
2023/07/01 02:13:06;;;;;;;8.88;5.75;;;;;;;16.42;73.67;93588.75;5023653;28;20220;-85
2023/07/01 02:15:32;;;;;;;10.35;5.65;;;;;;;16.43;73.59;93592.97;5023744;28;20024;-85
2023/07/01 02:17:57;;;;;;;9.77;5.75;;;;;;;16.42;73.63;93593.31;5023707;28;20021;-85
2023/07/01 02:20:23;;;;;;;11.93;6.90;;;;;;;16.38;73.29;93587.88;5023516;28;20014;-85
2023/07/01 02:22:49;;;;;;;10.68;5.80;;;;;;;16.35;73.89;93587.81;5023748;28;20320;-85
2023/07/01 02:25:15;;;;;;;12.13;6.45;;;;;;;16.34;73.97;93581.63;5023561;28;20036;-86
2023/07/01 02:27:40;;;;;;;16.02;6.30;;;;;;;16.29;73.89;93586.56;5023071;28;20017;-85
2023/07/01 02:30:07;;;;;;;12.20;6.40;;;;;;;16.28;73.85;93583.06;5023585;28;20136;-85
2023/07/01 02:32:32;;;;;;;10.43;6.47;;;;;;;16.29;73.79;93581.19;5023599;28;20060;-85
2023/07/01 02:34:58;;;;;;;10.27;5.90;;;;;;;16.24;73.81;93583.03;5023071;28;20034;-85
2023/07/01 02:37:24;;;;;;;9.13;5.75;;;;;;;16.17;74.02;93582.88;5023349;28;20018;-85
2023/07/01 02:39:49;;;;;;;10.60;6.13;;;;;;;16.12;74.53;93593.91;5023549;28;20015;-85
2023/07/01 02:42:21;;;;;;;12.48;6.82;;;;;;;16.09;74.80;93591.16;5023511;28;20017;-85
2023/07/01 02:44:49;;;;;;;12.38;5.72;;;;;;;16.01;75.01;93593.69;5025709;28;20025;-85
2023/07/01 02:47:15;;;;;;;7.70;5.75;;;;;;;15.98;75.18;93599.78;5027172;28;20022;-85
2023/07/01 02:49:40;;;;;;;9.73;6.22;;;;;;;15.98;75.58;93601.69;5026776;28;20032;-86
2023/07/01 02:52:10;;;;;;;9.10;6.43;;;;;;;15.89;75.81;93607.25;5027046;28;20017;-86
2023/07/01 02:54:39;;;;;;;11.00;6.25;;;;;;;15.85;75.91;93606.41;5026923;28;20037;-85
2023/07/01 02:57:07;;;;;;;10.23;6.15;;;;;;;15.83;76.16;93601.41;5026752;28;20312;-85
2023/07/01 02:59:32;;;;;;;8.77;6.00;;;;;;;15.81;76.25;93603.66;5025567;28;20021;-85
2023/07/01 03:01:58;;;;;;;13.27;6.00;;;;;;;15.81;76.41;93611.72;5026747;28;20324;-84
2023/07/01 03:04:23;;;;;;;8.32;6.00;;;;;;;15.78;76.75;93615.09;5026385;28;20374;-85
2023/07/01 03:06:48;;;;;;;14.43;6.30;;;;;;;15.76;76.74;93617.38;5026548;28;20046;-85
2023/07/01 03:09:14;;;;;;;10.25;6.22;;;;;;;15.78;76.51;93611.66;5026575;28;20009;-85
2023/07/01 03:11:40;;;;;;;17.25;6.13;;;;;;;15.80;76.46;93612.84;5041701;28;20033;-86
2023/07/01 03:14:05;;;;;;;7.60;5.88;;;;;;;15.82;76.61;93615.97;5026278;28;20017;-85
2023/07/01 03:16:31;;;;;;;8.90;5.90;;;;;;;15.83;76.79;93611.34;5025944;28;20037;-86
2023/07/01 03:18:58;;;;;;;11.48;6.43;;;;;;;15.89;76.41;93603.81;5041655;28;20021;-85
2023/07/01 03:21:24;;;;;;;16.15;6.30;;;;;;;15.94;76.72;93601.63;5026479;28;20208;-85
2023/07/01 03:23:50;;;;;;;12.32;6.18;;;;;;;15.98;76.37;93607.84;5026065;28;20061;-85
2023/07/01 03:26:16;;;;;;;8.57;5.70;;;;;;;15.92;76.47;93608.50;5026245;28;20366;-85
2023/07/01 03:28:42;;;;;;;9.55;5.80;;;;;;;15.97;76.46;93600.91;5026217;28;20041;-85
2023/07/01 03:31:07;;;;;;;12.02;6.28;;;;;;;16.04;76.51;93606.44;5041834;28;20037;-86
2023/07/01 03:33:33;;;;;;;11.20;7.18;;;;;;;16.09;76.47;93609.97;5025895;28;20050;-83
2023/07/01 03:35:59;;;;;;;12.05;7.00;;;;;;;16.11;76.21;93605.78;5025931;28;20018;-84
2023/07/01 03:38:25;;;;;;;12.40;6.70;;;;;;;16.18;75.91;93611.31;5025946;28;20021;-84
2023/07/01 03:40:50;;;;;;;15.50;6.95;;;;;;;16.18;76.04;93611.31;5025916;28;20220;-84
2023/07/01 03:43:16;;;;;;;14.10;7.03;;;;;;;16.23;76.02;93613.72;5025842;28;20116;-87
2023/07/01 03:45:41;;;;;;;13.43;7.00;;;;;;;16.28;75.74;93607.25;5025725;28;20037;-85
2023/07/01 03:48:07;;;;;;;15.77;6.90;;;;;;;16.30;75.55;93604.22;5025727;28;20312;-85
2023/07/01 03:50:32;;;;;;;11.95;7.03;;;;;;;16.30;75.51;93610.38;5025486;28;20028;-85
2023/07/01 03:52:58;;;;;;;15.60;6.93;;;;;;;16.28;75.75;93612.66;5024612;28;20018;-85
2023/07/01 03:55:25;;;;;;;15.00;6.93;;;;;;;16.24;76.21;93620.66;5024054;28;20026;-85
2023/07/01 03:57:50;;;;;;;9.38;6.63;;;;;;;16.27;76.54;93621.09;5025519;28;20026;-85
2023/07/01 04:00:19;;;;;;;15.00;6.78;;;;;;;16.30;76.69;93615.00;5025078;28;20037;-85
2023/07/01 04:02:49;;;;;;;10.48;6.88;;;;;;;16.33;76.78;93616.97;5040687;28;20030;-85
2023/07/01 04:05:16;;;;;;;17.02;7.85;;;;;;;16.36;77.01;93617.03;5025490;28;20189;-85
2023/07/01 04:07:43;;;;;;;14.30;6.85;;;;;;;16.41;76.76;93615.97;5025434;28;20084;-85
2023/07/01 04:10:10;;;;;;;16.52;7.35;;;;;;;16.41;76.33;93618.69;5025246;28;20025;-84
2023/07/01 04:12:37;;;;;;;13.05;7.15;;;;;;;16.46;76.57;93618.38;5025226;28;20276;-85
2023/07/01 04:15:09;;;;;;;12.90;7.18;;;;;;;16.44;75.82;93615.25;5025154;28;20045;-85
2023/07/01 04:17:35;;;;;;;14.65;7.57;;;;;;;16.50;75.96;93615.75;5025048;28;20017;-84
2023/07/01 04:20:02;;;;;;;11.82;7.88;;;;;;;16.50;75.44;93613.84;5025131;28;20080;-85
2023/07/01 04:22:28;;;;;;;18.17;8.73;;;;;;;16.57;75.15;93615.91;5025143;28;20218;-85
2023/07/01 04:24:53;;;;;;;14.57;7.80;;;;;;;16.67;74.83;93620.69;5024089;28;20021;-85
2023/07/01 04:27:19;;;;;;;12.82;8.48;;;;;;;16.76;74.43;93617.78;5025199;28;20038;-85
2023/07/01 04:29:45;;;;;;;12.13;7.45;;;;;;;16.84;74.57;93614.09;5025179;28;20021;-85
2023/07/01 04:32:10;;;;;;;18.83;8.10;;;;;;;16.93;74.85;93620.00;5023819;28;20018;-85
2023/07/01 04:34:36;;;;;;;12.75;7.90;;;;;;;17.01;74.30;93619.00;5040081;28;20038;-85
2023/07/01 04:37:02;;;;;;;14.02;7.20;;;;;;;17.09;73.55;93611.81;5024959;28;20055;-85
2023/07/01 04:39:27;;;;;;;16.73;8.05;;;;;;;17.15;73.45;93607.69;5024795;28;20028;-85
2023/07/01 04:41:52;;;;;;;11.63;7.55;;;;;;;17.20;73.60;93603.94;5024617;28;20021;-86
2023/07/01 04:44:18;;;;;;;20.48;7.90;;;;;;;17.32;73.81;93609.13;5024842;28;20013;-86
2023/07/01 04:46:44;;;;;;;19.00;9.00;;;;;;;17.37;72.72;93614.19;5024742;28;20017;-86
2023/07/01 04:49:10;;;;;;;17.95;8.45;;;;;;;17.33;72.85;93609.88;5024309;28;20064;-85
2023/07/01 04:51:36;;;;;;;14.88;8.50;;;;;;;17.41;71.66;93609.63;5024351;28;20018;-85
2023/07/01 04:54:04;;;;;;;20.17;8.30;;;;;;;17.45;72.14;93618.53;5024530;28;20029;-85
2023/07/01 04:56:30;;;;;;;10.70;7.05;;;;;;;17.52;72.25;93619.78;5024518;28;20033;-85
2023/07/01 04:58:55;;;;;;;13.70;7.88;;;;;;;17.52;71.70;93630.56;5024537;28;20092;-85
2023/07/01 05:01:21;;;;;;;12.85;7.43;;;;;;;17.53;71.75;93629.44;5024388;28;20072;-85
2023/07/01 05:03:46;;;;;;;21.08;7.63;;;;;;;17.60;71.48;93624.13;5024330;28;20088;-85
2023/07/01 05:06:12;;;;;;;13.18;7.78;;;;;;;17.63;71.17;93621.50;5024043;28;20022;-86
2023/07/01 05:08:38;;;;;;;11.95;7.90;;;;;;;17.71;70.86;93630.47;5024121;28;20025;-85
2023/07/01 05:11:03;;;;;;;13.52;7.13;;;;;;;17.76;70.32;93627.44;5024217;28;20129;-84
2023/07/01 05:13:29;;;;;;;14.50;7.07;;;;;;;17.84;70.87;93637.22;5024321;28;20211;-85
2023/07/01 05:15:54;;;;;;;12.80;7.88;;;;;;;17.84;71.16;93636.44;5039516;28;20059;-85
2023/07/01 05:18:20;;;;;;;25.30;8.00;;;;;;;17.85;70.42;93635.31;5024397;28;20028;-86
2023/07/01 05:20:46;;;;;;;11.80;8.40;;;;;;;17.84;70.40;93637.22;5024372;28;20398;-85
2023/07/01 05:23:11;;;;;;;14.30;7.05;;;;;;;17.95;70.49;93636.59;5024058;28;20069;-85
2023/07/01 05:25:37;;;;;;;14.63;8.25;;;;;;;18.01;70.15;93630.53;5023960;28;20059;-87
2023/07/01 05:28:02;;;;;;;13.35;7.45;;;;;;;18.11;70.21;93633.72;5023976;28;20026;-86
2023/07/01 05:30:27;;;;;;;10.60;7.97;;;;;;;18.12;70.76;93641.44;5024356;28;20311;-86
2023/07/01 05:32:53;;;;;;;20.02;7.97;;;;;;;18.19;70.70;93638.84;5023900;28;20266;-86
2023/07/01 05:35:19;;;;;;;12.50;7.47;;;;;;;18.23;70.10;93639.66;5023460;28;20053;-86
2023/07/01 05:37:45;;;;;;;14.77;8.50;;;;;;;18.30;69.81;93625.50;5024084;28;20371;-86
2023/07/01 05:40:12;;;;;;;12.40;8.50;;;;;;;18.34;68.92;93628.22;5023857;28;20097;-86
2023/07/01 05:42:38;;;;;;;17.08;7.70;;;;;;;18.38;69.13;93634.47;5023788;28;20034;-86
2023/07/01 05:45:04;;;;;;;13.50;7.85;;;;;;;18.42;69.17;93637.97;5024230;28;20028;-86
2023/07/01 05:47:30;;;;;;;15.07;7.68;;;;;;;18.45;69.62;93643.38;5023854;28;20036;-87
2023/07/01 05:49:55;;;;;;;21.27;7.57;;;;;;;18.56;68.96;93627.34;5023710;28;20054;-86
2023/07/01 05:52:21;;;;;;;14.35;8.10;;;;;;;18.48;68.69;93636.50;5023877;28;20095;-86
2023/07/01 05:54:46;;;;;;;10.60;6.80;;;;;;;18.54;68.78;93640.44;5024139;28;20033;-87
2023/07/01 05:57:12;;;;;;;11.52;7.38;;;;;;;18.47;68.94;93643.03;5022954;28;20026;-86
2023/07/01 05:59:37;;;;;;;12.27;6.63;;;;;;;18.58;68.68;93643.94;5023772;28;20030;-86
2023/07/01 06:02:03;;;;;;;12.48;7.95;;;;;;;18.69;67.37;93643.28;5023692;28;20022;-86
2023/07/01 06:04:28;;;;;;;11.32;7.10;;;;;;;18.77;67.26;93637.59;5023678;28;20048;-86
2023/07/01 06:06:54;;;;;;;15.60;6.95;;;;;;;18.82;66.33;93639.97;5023797;28;20025;-86
2023/07/01 06:09:20;;;;;;;15.55;7.18;;;;;;;18.82;66.32;93655.38;5022533;28;20071;-86
2023/07/01 06:11:45;;;;;;;16.92;7.22;;;;;;;18.96;67.56;93654.75;5023703;28;20032;-86
2023/07/01 06:14:11;;;;;;;13.70;8.18;;;;;;;19.02;67.42;93645.94;5023714;28;20022;-86
2023/07/01 06:16:37;;;;;;;13.18;7.72;;;;;;;19.06;67.15;93648.69;5023713;28;20327;-87
2023/07/01 06:19:02;;;;;;;15.90;7.53;;;;;;;19.11;66.06;93652.97;5025601;28;20028;-86
2023/07/01 06:21:28;;;;;;;17.17;7.70;;;;;;;19.16;66.05;93649.94;5027383;28;20227;-86
2023/07/01 06:23:55;;;;;;;13.25;7.20;;;;;;;19.17;66.48;93644.19;5027609;28;20037;-86
2023/07/01 06:26:21;;;;;;;16.48;8.23;;;;;;;19.30;66.17;93647.38;5027244;28;20018;-84
2023/07/01 06:28:47;;;;;;;14.70;7.93;;;;;;;19.39;64.57;93650.50;5027234;28;20022;-84
2023/07/01 06:31:12;;;;;;;12.38;6.78;;;;;;;19.42;63.15;93646.31;5027214;28;20327;-85
2023/07/01 06:33:41;;;;;;;11.55;7.55;;;;;;;19.46;62.43;93652.53;5027119;28;20045;-85
2023/07/01 06:36:07;;;;;;;12.18;6.60;;;;;;;19.62;63.75;93644.13;5027039;28;20057;-84
2023/07/01 06:38:33;;;;;;;9.65;7.35;;;;;;;19.73;63.71;93645.00;5042418;28;20030;-85
2023/07/01 06:40:59;;;;;;;12.35;7.47;;;;;;;19.82;62.06;93639.25;5026096;28;20048;-85
2023/07/01 06:43:24;;;;;;;11.25;5.75;;;;;;;19.95;60.33;93645.94;5042103;28;20226;-84
2023/07/01 06:45:50;;;;;;;9.48;6.00;;;;;;;20.01;58.60;93640.94;5027178;28;20052;-85
2023/07/01 06:48:15;;;;;;;16.55;7.03;;;;;;;20.11;59.79;93636.72;5027038;28;20030;-85
2023/07/01 06:50:41;;;;;;;10.13;5.63;;;;;;;20.22;60.96;93641.03;5026861;28;20021;-85
2023/07/01 06:53:07;;;;;;;11.32;6.88;;;;;;;20.27;58.99;93642.59;5026670;28;20096;-86
2023/07/01 06:55:33;;;;;;;14.35;6.72;;;;;;;20.30;59.85;93647.28;5026720;28;20025;-85
2023/07/01 06:58:04;;;;;;;12.43;5.88;;;;;;;20.37;58.88;93641.91;5026573;28;20219;-85
2023/07/01 07:00:32;;;;;;;10.35;6.82;;;;;;;20.39;58.01;93628.75;5025815;28;20041;-85
2023/07/01 07:02:58;;;;;;;9.10;6.35;;;;;;;20.46;57.99;93630.72;5026670;28;20030;-85
2023/07/01 07:05:23;;;;;;;12.60;6.07;;;;;;;20.56;57.82;93623.78;5026180;28;20044;-86
2023/07/01 07:07:49;;;;;;;9.27;6.03;;;;;;;20.50;58.24;93628.78;5026328;28;20319;-86
2023/07/01 07:10:15;;;;;;;10.93;6.40;;;;;;;20.58;58.15;93622.28;5026533;28;20030;-86
2023/07/01 07:12:40;;;;;;;11.13;6.20;;;;;;;20.77;58.66;93623.09;5026496;28;20041;-85
2023/07/01 07:15:06;;;;;;;12.27;6.28;;;;;;;20.92;57.02;93615.78;5025395;28;20022;-86
2023/07/01 07:17:33;;;;;;;12.55;6.60;;;;;;;20.98;56.97;93615.00;5026291;28;20044;-85
2023/07/01 07:19:59;;;;;;;11.27;6.35;;;;;;;21.02;56.73;93604.97;5026149;28;20125;-85
2023/07/01 07:22:24;;;;;;;10.10;6.10;;;;;;;21.14;56.14;93608.44;5026264;28;20037;-86
2023/07/01 07:24:50;;;;;;;18.02;6.53;;;;;;;21.24;56.47;93605.75;5026463;28;20318;-86
2023/07/01 07:27:15;;;;;;;11.98;5.43;;;;;;;21.34;55.66;93619.69;5024999;28;20026;-86
2023/07/01 07:29:40;;;;;;;13.82;6.10;;;;;;;21.40;55.76;93608.06;5025343;28;20029;-86
2023/07/01 07:32:07;;;;;;;11.65;5.68;;;;;;;21.48;56.43;93610.81;5026206;28;20029;-86
2023/07/01 07:34:32;;;;;;;13.10;6.35;;;;;;;21.42;56.35;93611.19;5025741;28;20113;-86
2023/07/01 07:36:58;;;;;;;11.82;5.47;;;;;;;21.57;55.86;93606.53;5025913;28;20343;-86
2023/07/01 07:39:23;;;;;;;9.02;5.50;;;;;;;21.72;55.63;93601.88;5025958;28;20052;-86
2023/07/01 07:41:52;;;;;;;16.95;5.90;;;;;;;21.87;55.34;93607.28;5026051;28;20350;-86
2023/07/01 07:44:18;;;;;;;14.43;4.72;;;;;;;22.06;54.73;93604.13;5025918;28;20357;-87
2023/07/01 07:46:44;;;;;;;8.38;4.85;;;;;;;22.22;53.62;93606.41;5024868;28;20049;-86
2023/07/01 07:49:10;;;;;;;11.43;5.10;;;;;;;22.21;52.73;93599.44;5025625;28;20294;-86
2023/07/01 07:51:36;;;;;;;9.52;5.22;;;;;;;22.34;52.71;93602.50;5025005;28;20064;-87
2023/07/01 07:54:01;;;;;;;11.35;5.80;;;;;;;22.47;51.68;93595.50;5025696;28;20022;-86
2023/07/01 07:56:26;;;;;;;6.22;4.38;;;;;;;22.55;50.44;93597.00;5025670;28;20048;-86
2023/07/01 07:58:52;;;;;;;10.38;4.97;;;;;;;22.57;51.02;93597.38;5025239;28;20029;-85
2023/07/01 08:01:18;;;;;;;7.88;5.28;;;;;;;22.64;51.49;93594.59;5025539;28;20037;-85
2023/07/01 08:03:43;;;;;;;12.88;5.82;;;;;;;22.68;51.16;93585.69;5025480;28;20028;-86
2023/07/01 08:06:09;;;;;;;11.25;5.15;;;;;;;22.84;51.30;93591.41;5025172;28;20064;-84
2023/07/01 08:08:35;;;;;;;9.23;5.50;;;;;;;22.90;50.83;93589.81;5024444;28;20699;-85
2023/07/01 08:11:01;;;;;;;11.63;6.85;;;;;;;23.05;50.45;93584.31;5025326;28;20030;-86
2023/07/01 08:13:26;;;;;;;13.77;6.10;;;;;;;23.10;50.72;93592.81;5025377;28;20029;-85
2023/07/01 08:15:52;;;;;;;11.75;5.07;;;;;;;23.20;50.88;93585.75;5025129;28;20328;-86
2023/07/01 08:18:17;;;;;;;9.57;5.78;;;;;;;23.23;49.93;93580.28;5025236;28;20087;-85
2023/07/01 08:20:46;;;;;;;9.13;5.45;;;;;;;23.30;49.50;93579.44;5024887;28;20101;-85
2023/07/01 08:23:13;;;;;;;16.85;5.13;;;;;;;23.41;49.57;93577.44;5025014;28;20065;-85
2023/07/01 08:25:40;;;;;;;7.68;5.15;;;;;;;23.52;49.56;93582.00;5024999;28;20029;-85
2023/07/01 08:28:05;;;;;;;10.50;5.28;;;;;;;23.40;50.17;93577.81;5024888;28;20021;-85
2023/07/01 08:30:30;;;;;;;13.32;5.43;;;;;;;23.48;50.11;93573.09;5025113;28;20072;-86
2023/07/01 08:32:56;;;;;;;9.02;5.15;;;;;;;23.55;49.29;93578.47;5024885;28;20053;-86
2023/07/01 08:35:21;;;;;;;11.13;5.50;;;;;;;23.61;48.70;93579.56;5024246;28;20038;-86
2023/07/01 08:37:47;;;;;;;13.13;5.72;;;;;;;23.58;47.92;93575.72;5023657;28;20036;-86
2023/07/01 08:40:14;;;;;;;9.50;4.75;;;;;;;23.73;47.85;93573.66;5024681;28;20024;-86
2023/07/01 08:42:43;;;;;;;7.38;4.93;;;;;;;23.79;47.26;93572.06;5039280;28;20045;-86
2023/07/01 08:45:09;;;;;;;7.85;4.50;;;;;;;23.78;46.16;93567.03;5024588;28;20025;-85
2023/07/01 08:47:38;;;;;;;8.15;3.97;;;;;;;23.99;47.18;93563.28;5024673;28;20021;-86
2023/07/01 08:50:08;;;;;;;9.10;4.20;;;;;;;24.19;45.61;93566.94;5024910;28;20123;-86
2023/07/01 08:52:40;;;;;;;6.82;4.05;;;;;;;24.38;44.36;93565.56;5023293;28;20026;-86
2023/07/01 08:55:07;;;;;;;9.60;3.95;;;;;;;24.54;42.05;93570.44;5024368;28;20092;-86
2023/07/01 08:57:33;;;;;;;7.43;4.15;;;;;;;24.65;42.66;93564.06;5024505;28;20030;-86
2023/07/01 08:59:58;;;;;;;7.18;4.15;;;;;;;24.74;43.39;93561.63;5024621;28;20028;-86
2023/07/01 09:02:25;;;;;;;8.07;4.38;;;;;;;24.90;43.58;93561.78;5024439;28;20051;-86
2023/07/01 09:04:50;;;;;;;8.18;4.28;;;;;;;24.90;42.52;93550.13;5024199;28;20021;-86
2023/07/01 09:07:16;;;;;;;8.20;4.47;;;;;;;25.07;42.42;93557.25;5024763;28;20022;-86
2023/07/01 09:09:44;;;;;;;7.38;4.57;;;;;;;25.23;42.70;93545.72;5024433;28;20097;-86
2023/07/01 09:12:10;;;;;;;10.18;4.38;;;;;;;25.27;42.23;93548.41;5023093;28;20328;-86
2023/07/01 09:15:11;;;;;;;9.07;4.57;;;;;;;25.37;42.06;93544.75;5023076;28;20320;-86
2023/07/01 09:17:39;;;;;;;8.38;4.68;;;;;;;25.40;42.09;93541.97;4983109;28;20030;-86
2023/07/01 09:20:10;;;;;;;5.75;4.07;;;;;;;25.48;42.33;93533.63;5016520;28;20056;-86
2023/07/01 09:22:38;;;;;;;11.63;4.95;;;;;;;25.53;42.66;93533.16;5024035;28;20335;-86
2023/07/01 09:25:05;;;;;;;8.88;4.13;;;;;;;25.68;41.20;93534.44;5024157;28;20041;-86
2023/07/01 09:27:49;;;;;;;9.60;3.78;;;;;;;25.79;40.72;93535.03;5024161;28;20025;-86
2023/07/01 09:30:21;;;;;;;7.55;3.75;;;;;;;25.93;40.68;93525.06;5024147;28;20033;-86
2023/07/01 09:32:47;;;;;;;15.18;4.32;;;;;;;26.01;40.97;93519.06;5024088;28;20030;-86
2023/07/01 09:35:13;;;;;;;15.43;4.50;;;;;;;25.96;41.73;93529.69;5023708;28;20052;-86
2023/07/01 09:37:38;;;;;;;9.05;4.35;;;;;;;26.13;41.76;93514.91;5024080;28;20089;-86
2023/07/01 09:40:24;;;;;;;7.15;4.38;;;;;;;26.28;42.62;93520.09;5024024;28;20030;-87
2023/07/01 09:42:54;;;;;;;7.95;4.18;;;;;;;26.32;42.36;93520.78;5024161;28;20055;-87
2023/07/01 09:45:20;;;;;;;10.38;4.45;;;;;;;26.47;42.00;93522.03;5023928;28;20022;-86
2023/07/01 09:47:53;;;;;;;16.52;5.07;;;;;;;26.38;40.42;93508.19;5023876;28;20052;-86
2023/07/01 09:50:23;;;;;;;16.13;4.15;;;;;;;26.54;41.34;93513.69;5023874;28;20093;-87
2023/07/01 09:52:50;;;;;;;8.93;5.05;;;;;;;26.63;41.46;93512.34;5023229;28;20025;-85
2023/07/01 09:55:16;;;;;;;7.35;4.50;;;;;;;26.77;40.78;93506.56;5028078;28;20030;-86
2023/07/01 09:57:41;;;;;;;6.68;4.25;;;;;;;26.75;39.74;93515.19;5027780;28;20338;-86
2023/07/01 10:00:10;;;;;;;7.43;4.43;;;;;;;26.70;40.71;93501.25;5027338;28;20030;-86
2023/07/01 10:02:35;;;;;;;11.20;4.65;;;;;;;26.69;41.75;93494.25;5027823;28;20033;-86
2023/07/01 10:05:01;;;;;;;12.93;3.80;;;;;;;26.78;42.28;93497.16;5027499;28;20036;-86
2023/07/01 10:07:27;;;;;;;6.68;4.40;;;;;;;26.75;40.95;93495.28;5043026;28;20250;-86
2023/07/01 10:09:53;;;;;;;7.38;4.80;;;;;;;26.78;39.50;93494.44;5027713;28;20029;-86
2023/07/01 10:12:20;;;;;;;7.25;4.30;;;;;;;26.69;40.32;93483.31;5027634;28;20197;-86
2023/07/01 10:14:50;;;;;;;8.10;4.72;;;;;;;26.59;41.63;93490.56;5043025;28;20034;-86
2023/07/01 10:17:17;;;;;;;8.00;3.95;;;;;;;26.66;40.28;93478.69;5027555;28;20018;-86
2023/07/01 10:19:46;;;;;;;9.27;5.30;;;;;;;26.77;41.35;93479.22;5027552;28;20018;-86
2023/07/01 10:22:23;;;;;;;10.35;5.25;;;;;;;26.93;42.51;93479.25;5027240;28;20037;-86
2023/07/01 10:25:02;;;;;;;8.95;4.50;;;;;;;27.12;40.98;93482.31;5042910;28;20017;-87
2023/07/01 10:27:40;;;;;;;13.90;5.20;;;;;;;27.23;40.78;93474.63;5026151;28;20037;-86
2023/07/01 10:30:12;;;;;;;7.60;4.47;;;;;;;27.30;40.53;93463.53;5027539;28;20042;-86
2023/07/01 10:32:39;;;;;;;7.88;4.80;;;;;;;27.48;40.83;93457.59;5027067;28;20022;-86
2023/07/01 10:35:04;;;;;;;11.70;4.70;;;;;;;27.45;40.71;93461.19;5027006;28;20112;-86
2023/07/01 10:37:31;;;;;;;5.93;4.38;;;;;;;27.50;40.05;93457.94;5027089;28;20307;-86
2023/07/01 10:39:59;;;;;;;10.27;4.53;;;;;;;27.57;41.46;93440.53;5026895;28;20017;-86
2023/07/01 10:42:31;;;;;;;9.05;4.35;;;;;;;27.71;40.40;93451.09;5026913;28;20040;-86
2023/07/01 10:45:12;;;;;;;6.28;4.60;;;;;;;27.78;41.39;93459.13;5026827;28;20014;-86
2023/07/01 10:47:42;;;;;;;10.98;5.10;;;;;;;27.77;41.85;93445.88;5026943;28;20032;-86
2023/07/01 10:50:13;;;;;;;9.35;4.70;;;;;;;27.82;41.62;93456.28;5042111;28;20212;-85
2023/07/01 10:52:57;;;;;;;13.52;4.60;;;;;;;27.83;40.08;93452.34;5026842;28;20030;-86
2023/07/01 10:55:40;;;;;;;8.48;4.90;;;;;;;27.94;39.48;93452.06;5026825;28;20033;-86
2023/07/01 10:58:26;;;;;;;9.43;4.43;;;;;;;28.05;38.54;93447.06;5026899;28;20026;-86
2023/07/01 11:00:58;;;;;;;7.38;3.75;;;;;;;28.07;37.93;93438.41;5026670;28;20026;-86
2023/07/01 11:03:33;;;;;;;8.38;4.53;;;;;;;28.07;38.68;93444.66;5042226;28;20320;-86
2023/07/01 11:06:02;;;;;;;7.13;4.80;;;;;;;28.02;38.39;93447.94;5025610;28;20080;-86
2023/07/01 11:08:30;;;;;;;9.15;4.50;;;;;;;28.04;38.97;93445.53;5026535;28;20022;-86
2023/07/01 11:10:55;;;;;;;18.48;4.78;;;;;;;28.08;39.21;93440.72;5026533;28;20018;-86
2023/07/01 11:13:21;;;;;;;12.60;4.72;;;;;;;28.21;38.43;93436.03;5026714;28;20351;-86
2023/07/01 11:16:00;;;;;;;6.00;4.45;;;;;;;28.30;37.79;93431.88;5041547;28;20036;-86
2023/07/01 11:18:49;;;;;;;7.13;4.47;;;;;;;28.37;38.09;93428.91;5026218;28;20037;-86
2023/07/01 11:21:22;;;;;;;8.02;5.03;;;;;;;28.49;38.26;93428.16;5026311;28;20067;-86
2023/07/01 11:23:54;;;;;;;8.32;4.35;;;;;;;28.65;37.73;93432.03;5026423;28;20040;-86
2023/07/01 11:26:21;;;;;;;9.95;3.80;;;;;;;28.67;35.82;93424.13;5026063;28;20026;-86
2023/07/01 11:28:47;;;;;;;19.50;4.60;;;;;;;28.66;36.41;93430.78;5026425;28;20096;-86
2023/07/01 11:31:17;;;;;;;8.27;4.38;;;;;;;28.64;36.44;93422.25;5026138;28;20312;-86